Welcome, MN (56181)

10:49 AM CDT on September 05, 2015 (GMT -0500)
NuWay Coop - Welcome | | Change Station
CLOSE
Current Station
Personal Weather Station
Location: Welcome, MN
Elevation: 1224 ft
Nearby Weather Stations

Elev 1224 ft 43.67 °N, 94.61 °W | Updated 6 minutes ago

Overcast
Overcast
78.5 °F
Feels Like 81 °F
N
13.0
Wind Variable Wind from South
Gusts 20.0 mph

Today
High -- | Low -- °F
--% Chance of Precip.
Yesterday
High -- | Low -- °F
Precip. -- in
6:46 AM 7:47 PM
Waning Gibbous, 47% visible
Pressure 29.94 in
Visibility 10.0 miles
Clouds Mostly Cloudy 9500 ft
Heat Index 81 °F
Dew Point 72 °F
Humidity 81%
Rainfall 0.00 in
Snow Depth Not available.
UV 3 out of 12
Pollen 11.20 out of 12
Air Quality Not available.
Flu Activity Not available.
METAR KFRM 051535Z AUTO 17012KT 10SM BKN095 27/20 A2994 RMK AO1 LTG DSNT N
Pressure 29.94 in
Visibility 10.0 miles
Clouds Mostly Cloudy 9500 ft
Heat Index 81 °F
Dew Point 72 °F
Humidity 81%
Rainfall 0.00 in
Snow Depth Not available.
UV 3 out of 12
Pollen 11.20 out of 12
Air Quality Not available.
Flu Activity Not available.
METAR KFRM 051535Z AUTO 17012KT 10SM BKN095 27/20 A2994 RMK AO1 LTG DSNT N

10-Day Weather Forecast

×

Almanac

Astronomy

Sep. 05, 2015 Rise Set
Actual Time
Civil Twilight
Nautical Twilight
Astronomical Twilight
Moon
Length of Visible Light
Length of Day
Tomorrow will be .
, % of the Moon is Illuminated

Today's Extremes

State Highs State Lows

Community

WunderPhotos

Upload Photos

1,852,483 photos uploaded!

WunderBlogs® & News

Nearby

Air Quality

  Air Quality AQ Index Pollutant
Not available.

Snow Depth

Station Depth Elevation

Earthquake Activity

City Distance Mag. Time & Date
Minimum magnitude displayed is 2.5.

Coastal Water Temperatures

Place Temperature

Stations

Nearby Weather Stations

Station Location Temp. Windchill Dew Point Humidity Wind Precip. Elev Updated Type